Time;durP1;ratioP1;P1;durP2;ratioP2;P2;SDS_P1;SDS_P2;PMS_P1;PMS_P2;Temp;Humidity;BMP_temperature;BMP_pressure;BME280_temperature;BME280_humidity;BME280_pressure;Samples;Min_cycle;Max_cycle;Signal;HPM_P1;HPM_P2
2022/09/18 09:59:38;;;;;;;2.70;0.90;;;;;;;11.57;100.00;97831.06;15269384;19;20013;-53
2022/09/18 10:05:06;;;;;;;2.17;0.68;;;;;;;11.58;100.00;97831.91;15262323;19;20018;-53
2022/09/18 10:10:22;;;;;;;2.92;0.63;;;;;;;11.39;100.00;97826.00;15265659;19;20018;-54
2022/09/18 10:15:37;;;;;;;2.25;0.77;;;;;;;11.43;100.00;97833.72;15262703;19;20038;-60
2022/09/18 10:20:47;;;;;;;2.55;0.88;;;;;;;11.29;100.00;97846.16;15268353;19;20018;-51
2022/09/18 10:25:58;;;;;;;1.73;0.68;;;;;;;11.13;100.00;97839.84;15268036;19;20018;-55
2022/09/18 10:31:11;;;;;;;2.38;0.70;;;;;;;11.04;100.00;97836.38;15267727;19;20031;-52
2022/09/18 10:36:27;;;;;;;2.10;0.70;;;;;;;11.04;100.00;97840.94;15260521;19;20046;-51
2022/09/18 10:41:36;;;;;;;3.05;0.80;;;;;;;11.06;100.00;97834.34;15271123;19;20015;-48
2022/09/18 10:46:57;;;;;;;2.85;0.90;;;;;;;11.03;100.00;97844.63;15263863;19;20023;-50
2022/09/18 10:52:34;;;;;;;3.47;0.90;;;;;;;11.03;100.00;97833.84;15266521;19;20019;-53
2022/09/18 10:57:47;;;;;;;1.80;0.65;;;;;;;11.06;100.00;97844.25;15258322;19;20007;-54
2022/09/18 11:03:00;;;;;;;2.92;0.80;;;;;;;10.82;100.00;97842.56;15268886;19;20469;-50
2022/09/18 11:08:18;;;;;;;2.30;0.85;;;;;;;10.79;100.00;97843.78;15289872;19;20014;-52
2022/09/18 11:13:27;;;;;;;3.22;0.80;;;;;;;10.74;100.00;97829.97;15299675;19;20014;-51
2022/09/18 11:18:35;;;;;;;2.63;0.80;;;;;;;10.73;100.00;97834.53;15293058;19;20488;-53
2022/09/18 11:23:42;;;;;;;2.50;0.70;;;;;;;10.56;100.00;97833.78;15292093;19;20023;-54
2022/09/18 11:29:05;;;;;;;4.32;1.00;;;;;;;10.45;100.00;97828.78;15295525;19;20011;-55
2022/09/18 11:34:25;;;;;;;2.33;0.80;;;;;;;10.29;100.00;97848.50;15294057;19;20011;-54
2022/09/18 11:39:41;;;;;;;3.70;0.98;;;;;;;10.15;100.00;97845.53;15286342;19;20044;-52
2022/09/18 11:44:50;;;;;;;1.90;0.80;;;;;;;10.16;100.00;97843.66;15292681;19;20019;-54
2022/09/18 11:50:05;;;;;;;2.33;0.90;;;;;;;10.24;100.00;97826.66;15289223;19;20031;-55
2022/09/18 11:55:20;;;;;;;3.25;0.90;;;;;;;10.35;100.00;97820.06;15293714;19;20414;-55
2022/09/18 12:00:30;;;;;;;1.83;0.65;;;;;;;10.42;100.00;97811.09;15288907;19;20662;-50
2022/09/18 12:05:51;;;;;;;2.78;0.77;;;;;;;10.44;100.00;97814.47;15288012;19;20069;-53
2022/09/18 12:11:05;;;;;;;;;;;;;;;10.32;100.00;97822.06;15285857;19;20781;-53
2022/09/18 12:16:17;;;;;;;4.18;0.70;;;;;;;10.28;100.00;97819.91;15285666;19;19927;-53
2022/09/18 12:21:44;;;;;;;1.38;0.60;;;;;;;10.33;100.00;97813.00;15282403;19;20403;-54
2022/09/18 12:27:04;;;;;;;1.25;0.65;;;;;;;10.40;100.00;97807.78;15268522;19;20025;-52
2022/09/18 12:32:24;;;;;;;1.15;0.50;;;;;;;10.48;100.00;97802.34;15276467;19;20015;-59
2022/09/18 12:37:55;;;;;;;0.98;0.40;;;;;;;10.53;100.00;97791.03;15270601;19;20022;-59
2022/09/18 12:43:18;;;;;;;0.63;0.50;;;;;;;10.59;100.00;97792.19;15274051;19;20755;-59
2022/09/18 12:48:40;;;;;;;0.98;0.50;;;;;;;10.59;100.00;97789.50;15276379;19;20043;-59
2022/09/18 12:53:56;;;;;;;1.73;0.50;;;;;;;10.54;100.00;97783.78;15277613;19;20047;-59
2022/09/18 12:59:23;;;;;;;0.52;0.40;;;;;;;10.47;100.00;97771.03;15267438;19;20010;-59
2022/09/18 13:04:31;;;;;;;1.45;0.60;;;;;;;10.24;100.00;97779.00;15275161;19;20062;-59
2022/09/18 13:09:45;;;;;;;1.70;0.55;;;;;;;10.08;100.00;97792.56;15274316;19;20034;-59
2022/09/18 13:14:56;;;;;;;0.50;0.50;;;;;;;10.02;100.00;97796.78;15268276;19;20045;-59
2022/09/18 13:20:07;;;;;;;1.20;0.55;;;;;;;9.95;100.00;97798.47;15273883;19;20011;-59
2022/09/18 13:25:24;;;;;;;0.70;0.50;;;;;;;9.85;100.00;97793.31;15271333;19;20015;-59
2022/09/18 13:30:31;;;;;;;0.82;0.63;;;;;;;9.79;100.00;97813.66;15269009;19;20031;-59
2022/09/18 13:35:39;;;;;;;0.57;0.38;;;;;;;9.63;100.00;97790.31;15272619;19;20014;-59
2022/09/18 13:40:48;;;;;;;1.02;0.50;;;;;;;9.49;100.00;97804.47;15269359;19;20017;-59
2022/09/18 13:45:55;;;;;;;1.85;0.40;;;;;;;9.44;100.00;97793.34;15269451;19;20108;-59
2022/09/18 13:51:03;;;;;;;0.70;0.40;;;;;;;9.37;100.00;97845.13;15269171;19;20049;-60
2022/09/18 13:56:11;;;;;;;0.63;0.40;;;;;;;9.37;100.00;97818.25;15269671;19;20039;-60
2022/09/18 14:01:56;;;;;;;2.22;0.50;;;;;;;9.31;100.00;97820.75;15267724;19;20019;-60
2022/09/18 14:07:02;;;;;;;1.05;0.50;;;;;;;9.25;100.00;97803.47;15271615;19;20082;-60
2022/09/18 14:12:16;;;;;;;0.40;0.30;;;;;;;9.19;100.00;97804.13;15270852;19;20470;-60
2022/09/18 14:17:21;;;;;;;0.63;0.32;;;;;;;9.13;100.00;97808.31;15267622;19;20035;-60
2022/09/18 14:22:31;;;;;;;1.13;0.40;;;;;;;9.06;100.00;97815.38;15262892;19;20014;-60
2022/09/18 14:27:52;;;;;;;0.82;0.47;;;;;;;8.99;100.00;97839.38;15269275;19;20055;-60
2022/09/18 14:33:17;;;;;;;1.23;0.50;;;;;;;8.97;100.00;97845.94;15268949;19;20092;-60
2022/09/18 14:38:29;;;;;;;1.20;0.40;;;;;;;8.87;100.00;97840.69;15270745;19;20047;-60
2022/09/18 14:43:39;;;;;;;0.80;0.30;;;;;;;8.77;100.00;97838.16;15264615;19;20032;-60
2022/09/18 14:48:44;;;;;;;1.02;0.40;;;;;;;8.62;100.00;97841.50;15269798;19;20756;-59
2022/09/18 14:53:51;;;;;;;0.10;0.10;;;;;;;8.46;100.00;97838.72;15262941;19;20710;-59
2022/09/18 14:59:01;;;;;;;0.43;0.20;;;;;;;8.35;100.00;97822.91;15265121;19;20086;-59
2022/09/18 15:04:14;;;;;;;1.02;0.30;;;;;;;8.24;100.00;97827.56;15265250;19;20430;-59
2022/09/18 15:09:27;;;;;;;0.10;0.10;;;;;;;8.14;100.00;97816.09;15267488;19;20486;-54
2022/09/18 15:14:36;;;;;;;0.63;0.20;;;;;;;8.06;100.00;97834.81;15268391;19;20014;-53
2022/09/18 15:20:00;;;;;;;0.43;0.20;;;;;;;8.02;100.00;97812.84;15268415;19;20505;-55
2022/09/18 15:25:05;;;;;;;0.40;0.20;;;;;;;8.01;100.00;97813.84;15257399;19;20469;-54
2022/09/18 15:30:18;;;;;;;0.10;0.10;;;;;;;8.00;100.00;97813.03;15272176;19;20018;-53
2022/09/18 15:35:25;;;;;;;0.20;0.20;;;;;;;8.01;100.00;97816.53;15263981;19;20006;-53
2022/09/18 15:40:32;;;;;;;0.43;0.20;;;;;;;8.01;100.00;97800.44;15255701;19;20011;-53
2022/09/18 15:45:40;;;;;;;0.20;0.20;;;;;;;8.00;100.00;97796.06;15261334;19;20014;-53
2022/09/18 15:50:45;;;;;;;0.40;0.20;;;;;;;8.01;100.00;97801.28;15269519;19;20006;-53
2022/09/18 15:55:56;;;;;;;0.45;0.20;;;;;;;8.03;100.00;97782.34;15274253;19;20015;-54
2022/09/18 16:01:05;;;;;;;;;;;;;;;8.08;100.00;97790.75;15284172;19;20062;-53
2022/09/18 16:06:22;;;;;;;0.63;0.35;;;;;;;8.11;100.00;97776.19;15276991;19;19911;-53
2022/09/18 16:11:43;;;;;;;0.50;0.50;;;;;;;8.12;100.00;97759.09;15276972;19;20002;-53
2022/09/18 16:16:50;;;;;;;0.85;0.50;;;;;;;8.10;100.00;97753.88;15275178;19;20686;-51
2022/09/18 16:21:56;;;;;;;0.82;0.30;;;;;;;8.14;100.00;97751.72;15257469;19;20342;-53
2022/09/18 16:27:06;;;;;;;0.20;0.20;;;;;;;8.13;100.00;97726.72;15278431;19;20027;-53
2022/09/18 16:32:14;;;;;;;0.50;0.25;;;;;;;8.14;100.00;97738.31;15273923;19;20371;-54
2022/09/18 16:37:22;;;;;;;0.25;0.20;;;;;;;8.16;100.00;97749.72;15245133;19;20772;-53
2022/09/18 16:42:26;;;;;;;0.38;0.20;;;;;;;8.12;100.00;97754.53;15271641;19;20015;-54
2022/09/18 16:47:34;;;;;;;0.43;0.32;;;;;;;8.11;100.00;97749.34;15270606;19;20007;-50
2022/09/18 16:52:39;;;;;;;0.38;0.30;;;;;;;8.10;100.00;97753.03;15277861;19;20379;-52
2022/09/18 16:57:43;;;;;;;1.05;0.57;;;;;;;8.03;100.00;97750.16;15272506;19;20039;-52
2022/09/18 17:02:52;;;;;;;0.30;0.30;;;;;;;8.01;100.00;97747.66;15266991;19;20029;-54
2022/09/18 17:07:57;;;;;;;0.30;0.30;;;;;;;7.97;100.00;97759.69;15279853;19;20375;-51
2022/09/18 17:13:02;;;;;;;0.20;0.20;;;;;;;7.95;100.00;97763.53;15273396;19;20047;-54
2022/09/18 17:18:10;;;;;;;0.68;0.20;;;;;;;7.96;100.00;97751.81;15276461;19;20007;-59
2022/09/18 17:23:15;;;;;;;0.60;0.40;;;;;;;7.91;100.00;97763.03;15274868;19;20117;-59
2022/09/18 17:28:20;;;;;;;0.30;0.28;;;;;;;7.83;100.00;97765.66;15275014;19;20336;-60
2022/09/18 17:33:28;;;;;;;0.43;0.30;;;;;;;7.80;100.00;97755.25;15269601;19;20015;-60
2022/09/18 17:38:34;;;;;;;0.20;0.20;;;;;;;7.77;100.00;97755.59;15273712;19;20376;-59
2022/09/18 17:43:40;;;;;;;0.50;0.40;;;;;;;7.71;100.00;97765.09;15276371;19;20018;-58
2022/09/18 17:48:47;;;;;;;0.88;0.35;;;;;;;7.75;100.00;97765.63;15270709;19;20018;-59
2022/09/18 17:53:59;;;;;;;0.80;0.38;;;;;;;7.78;100.00;97755.41;15273728;19;20014;-58
2022/09/18 17:59:06;;;;;;;0.25;0.20;;;;;;;7.77;100.00;97760.94;15266265;19;20018;-58
2022/09/18 18:04:14;;;;;;;0.45;0.30;;;;;;;7.78;100.00;97768.00;15267335;19;20648;-79
2022/09/18 18:09:19;;;;;;;0.75;0.45;;;;;;;7.79;100.00;97764.31;15267754;19;20011;-80
2022/09/18 18:14:24;;;;;;;0.43;0.28;;;;;;;7.83;100.00;97768.34;15264047;19;20018;-78
2022/09/18 18:19:31;;;;;;;1.35;0.30;;;;;;;7.86;100.00;97773.38;15269061;19;20356;-77
2022/09/18 18:24:37;;;;;;;0.93;0.35;;;;;;;7.89;100.00;97774.91;15277071;19;20014;-78
2022/09/18 18:29:42;;;;;;;1.15;0.40;;;;;;;7.91;100.00;97779.13;15275088;19;20118;-76
2022/09/18 18:34:49;;;;;;;0.40;0.28;;;;;;;7.93;100.00;97777.13;15279947;19;20559;-77
2022/09/18 18:39:54;;;;;;;0.50;0.30;;;;;;;8.02;100.00;97780.66;15276839;19;20026;-78
2022/09/18 18:44:59;;;;;;;0.75;0.40;;;;;;;8.06;100.00;97775.81;15279025;19;20014;-76
2022/09/18 18:50:10;;;;;;;0.40;0.28;;;;;;;8.08;100.00;97787.22;15272488;19;20034;-78
2022/09/18 18:55:16;;;;;;;0.30;0.30;;;;;;;8.07;100.00;97778.34;15274868;19;20029;-77
2022/09/18 19:00:26;;;;;;;1.58;0.30;;;;;;;8.07;100.00;97780.19;15278147;19;20100;-77
2022/09/18 19:05:33;;;;;;;1.05;0.50;;;;;;;8.07;100.00;97770.31;15275788;19;20885;-76
2022/09/18 19:10:38;;;;;;;0.45;0.35;;;;;;;8.01;100.00;97777.16;15271702;19;20006;-78
2022/09/18 19:15:43;;;;;;;1.38;0.40;;;;;;;8.00;100.00;97777.28;15276565;19;20026;-78
2022/09/18 19:20:52;;;;;;;0.28;0.28;;;;;;;8.00;100.00;97767.41;15279075;19;20343;-76
2022/09/18 19:25:58;;;;;;;1.48;0.30;;;;;;;8.05;100.00;97758.88;15273377;19;20021;-76
2022/09/18 19:31:05;;;;;;;0.73;0.30;;;;;;;8.09;100.00;97762.94;15291183;19;20028;-74
2022/09/18 19:36:13;;;;;;;0.68;0.40;;;;;;;8.13;100.00;97763.44;15289093;19;20006;-75
2022/09/18 19:41:23;;;;;;;0.60;0.50;;;;;;;8.16;100.00;97757.78;15290150;19;20018;-76
2022/09/18 19:46:39;;;;;;;0.77;0.30;;;;;;;8.15;100.00;97754.22;15306808;19;20033;-77
2022/09/18 19:51:48;;;;;;;0.73;0.40;;;;;;;8.18;100.00;97736.94;15332327;19;20394;-75
2022/09/18 19:56:52;;;;;;;1.65;0.50;;;;;;;8.22;100.00;97735.63;15271942;19;20541;-76
2022/09/18 20:01:57;;;;;;;1.48;0.50;;;;;;;8.25;100.00;97738.00;15283341;19;20740;-74
2022/09/18 20:07:04;;;;;;;1.52;0.40;;;;;;;8.24;100.00;97736.31;15276486;19;20006;-74
2022/09/18 20:12:11;;;;;;;1.52;0.40;;;;;;;8.26;100.00;97728.09;15282346;19;20018;-75
2022/09/18 20:17:16;;;;;;;1.27;0.40;;;;;;;8.25;100.00;97743.38;15268980;19;20014;-76
2022/09/18 20:22:23;;;;;;;1.23;0.32;;;;;;;8.22;100.00;97738.31;15279983;19;20036;-76
2022/09/18 20:27:27;;;;;;;1.15;0.50;;;;;;;8.13;100.00;97750.03;15269427;19;20021;-78
2022/09/18 20:32:32;;;;;;;1.60;0.40;;;;;;;8.09;100.00;97743.31;15279659;19;20030;-75
2022/09/18 20:37:39;;;;;;;2.60;0.50;;;;;;;7.99;100.00;97728.19;15274871;19;20015;-76
2022/09/18 20:42:44;;;;;;;1.45;0.60;;;;;;;7.91;100.00;97725.47;15279348;19;20003;-76
2022/09/18 20:47:48;;;;;;;1.17;0.47;;;;;;;7.78;100.00;97735.81;15266263;19;20519;-75
2022/09/18 20:53:04;;;;;;;1.08;0.50;;;;;;;7.69;100.00;97743.81;15275682;19;20383;-75
2022/09/18 20:58:10;;;;;;;2.90;0.60;;;;;;;7.55;100.00;97742.56;15276706;19;20017;-77
2022/09/18 21:03:16;;;;;;;2.60;0.50;;;;;;;7.47;100.00;97744.34;15272941;19;20029;-77
2022/09/18 21:08:24;;;;;;;1.80;0.50;;;;;;;7.43;100.00;97743.00;15271642;19;20468;-75
2022/09/18 21:13:30;;;;;;;1.33;0.40;;;;;;;7.44;100.00;97742.00;15275642;19;20427;-77
2022/09/18 21:18:36;;;;;;;1.85;0.50;;;;;;;7.43;100.00;97740.31;15270004;19;20019;-76
2022/09/18 21:23:57;;;;;;;1.45;0.50;;;;;;;7.45;100.00;97743.69;15276142;19;20006;-77
2022/09/18 21:29:04;;;;;;;2.77;0.60;;;;;;;7.44;100.00;97728.59;15270939;19;20535;-76
2022/09/18 21:34:08;;;;;;;1.70;0.55;;;;;;;7.43;100.00;97722.38;15272490;19;20803;-77
2022/09/18 21:39:15;;;;;;;1.00;0.40;;;;;;;7.45;100.00;97725.75;15275347;19;20479;-75
2022/09/18 21:44:25;;;;;;;2.90;0.60;;;;;;;7.49;100.00;97718.22;15270207;19;20039;-74
2022/09/18 21:49:31;;;;;;;1.65;0.60;;;;;;;7.47;100.00;97717.53;15272514;19;20126;-76
2022/09/18 21:54:38;;;;;;;1.60;0.60;;;;;;;7.46;100.00;97716.72;15267943;19;20488;-77
2022/09/18 21:59:43;;;;;;;1.45;0.43;;;;;;;7.48;100.00;97709.34;15271286;19;20756;-75
2022/09/18 22:04:48;;;;;;;2.00;0.35;;;;;;;7.44;100.00;97717.88;15266868;19;20476;-74
2022/09/18 22:09:55;;;;;;;1.77;0.50;;;;;;;7.45;100.00;97712.34;15273339;19;20011;-75
2022/09/18 22:15:00;;;;;;;2.50;0.55;;;;;;;7.50;100.00;97704.69;15272226;19;20018;-74
2022/09/18 22:20:05;;;;;;;1.48;0.60;;;;;;;7.51;100.00;97706.38;15273787;19;20018;-75
2022/09/18 22:25:14;;;;;;;1.00;0.40;;;;;;;7.56;100.00;97698.66;15263891;19;20010;-76
2022/09/18 22:30:18;;;;;;;4.32;0.85;;;;;;;7.57;100.00;97702.22;15271783;19;20021;-76
2022/09/18 22:35:23;;;;;;;1.60;0.57;;;;;;;7.62;100.00;97705.22;15272034;19;20539;-76
2022/09/18 22:40:30;;;;;;;1.67;0.43;;;;;;;7.67;100.00;97697.56;15268959;19;20070;-75
2022/09/18 22:45:34;;;;;;;2.58;0.63;;;;;;;7.68;100.00;97691.19;15273170;19;20175;-75
2022/09/18 22:50:39;;;;;;;3.22;0.50;;;;;;;7.67;100.00;97702.94;15274888;19;20015;-76
2022/09/18 22:55:46;;;;;;;4.35;0.75;;;;;;;7.65;100.00;97694.19;15327576;19;20006;-74
2022/09/18 23:00:51;;;;;;;1.70;0.50;;;;;;;7.72;100.00;97684.50;15285143;19;20111;-75
2022/09/18 23:05:55;;;;;;;2.88;0.70;;;;;;;7.72;100.00;97689.84;15272123;19;20479;-77
2022/09/18 23:11:07;;;;;;;2.15;0.70;;;;;;;7.73;100.00;97690.72;15269293;19;20119;-75
2022/09/18 23:16:13;;;;;;;1.88;0.55;;;;;;;7.72;100.00;97691.72;15271711;19;20467;-76
2022/09/18 23:21:18;;;;;;;2.00;0.70;;;;;;;7.69;100.00;97700.94;15269171;19;20091;-75
2022/09/18 23:26:28;;;;;;;1.70;0.60;;;;;;;7.71;100.00;97698.91;15259611;19;20027;-77
2022/09/18 23:31:36;;;;;;;1.02;0.50;;;;;;;7.71;100.00;97700.75;15272666;19;20019;-78
2022/09/18 23:36:43;;;;;;;2.15;0.60;;;;;;;7.79;100.00;97694.59;15266882;19;20017;-75
2022/09/18 23:41:51;;;;;;;2.08;0.60;;;;;;;7.81;100.00;97703.31;15264277;19;20014;-74
2022/09/18 23:46:56;;;;;;;1.33;0.50;;;;;;;7.79;100.00;97687.38;15269555;19;20011;-76
2022/09/18 23:52:01;;;;;;;1.40;0.60;;;;;;;7.77;100.00;97699.28;15271387;19;20017;-77
2022/09/18 23:57:08;;;;;;;2.25;0.80;;;;;;;7.72;100.00;97700.59;15267826;19;20013;-76
